Time;durP1;ratioP1;P1;durP2;ratioP2;P2;SDS_P1;SDS_P2;PMS_P1;PMS_P2;Temp;Humidity;BMP_temperature;BMP_pressure;BME280_temperature;BME280_humidity;BME280_pressure;Samples;Min_cycle;Max_cycle;Signal;HPM_P1;HPM_P2
2021/01/06 00:00:47;;;;;;;4.60;1.88;;;16.20;61.30;;;;;;4973731;28;20030;-62
2021/01/06 00:03:19;;;;;;;5.68;1.95;;;16.20;61.80;;;;;;4974228;28;20053;-62
2021/01/06 00:05:46;;;;;;;6.65;1.90;;;16.20;61.80;;;;;;4973193;28;20126;-61
2021/01/06 00:08:12;;;;;;;6.43;2.00;;;16.20;61.00;;;;;;4972285;28;20424;-66
2021/01/06 00:10:38;;;;;;;6.40;1.80;;;16.20;61.30;;;;;;4989110;28;20026;-63
2021/01/06 00:13:05;;;;;;;7.18;2.00;;;16.20;61.00;;;;;;4991659;28;20026;-60
2021/01/06 00:15:35;;;;;;;6.15;1.90;;;16.20;61.50;;;;;;4992361;28;20030;-63
2021/01/06 00:18:02;;;;;;;3.97;1.50;;;16.20;61.30;;;;;;4992193;28;20083;-62
2021/01/06 00:20:29;;;;;;;4.05;1.45;;;16.20;61.30;;;;;;4981296;28;20022;-63
2021/01/06 00:22:54;;;;;;;4.85;1.73;;;16.10;60.90;;;;;;4983044;28;20030;-63
2021/01/06 00:25:26;;;;;;;6.43;2.08;;;16.10;61.50;;;;;;4987076;28;20423;-63
2021/01/06 00:27:52;;;;;;;;;;;16.20;61.20;;;;;;4974420;28;20027;-63
2021/01/06 00:30:32;;;;;;;4.72;1.70;;;16.10;60.70;;;;;;4985183;28;19964;-63
2021/01/06 00:32:58;;;;;;;4.85;1.80;;;16.10;60.90;;;;;;4972623;28;20033;-61
2021/01/06 00:35:25;;;;;;;4.30;1.70;;;16.10;60.90;;;;;;4973099;28;20114;-63
2021/01/06 00:37:51;;;;;;;3.85;1.50;;;16.10;60.90;;;;;;4978749;28;20519;-63
2021/01/06 00:40:18;;;;;;;4.65;1.60;;;16.10;61.00;;;;;;4974834;28;20089;-61
2021/01/06 00:42:44;;;;;;;3.20;1.38;;;16.10;60.70;;;;;;4979474;28;20026;-62
2021/01/06 00:45:14;;;;;;;4.53;1.70;;;16.00;61.50;;;;;;4978241;28;20034;-64
2021/01/06 00:47:42;;;;;;;3.70;1.60;;;16.10;61.20;;;;;;4988409;28;20038;-63
2021/01/06 00:50:09;;;;;;;4.57;1.63;;;16.00;60.90;;;;;;4984208;28;20383;-61
2021/01/06 00:52:35;;;;;;;4.40;1.60;;;16.10;60.80;;;;;;4980762;28;20031;-63
2021/01/06 00:55:00;;;;;;;4.05;1.50;;;16.00;60.50;;;;;;4976055;28;20567;-63
2021/01/06 00:57:26;;;;;;;4.55;1.65;;;16.00;60.70;;;;;;4971897;28;20018;-64
2021/01/06 00:59:51;;;;;;;4.15;1.52;;;16.00;61.20;;;;;;4969847;28;20049;-63
2021/01/06 01:02:17;;;;;;;5.70;1.45;;;16.00;60.80;;;;;;4986682;28;20026;-62
2021/01/06 01:04:45;;;;;;;4.13;1.70;;;16.00;60.80;;;;;;4971236;28;20420;-63
2021/01/06 01:07:11;;;;;;;4.15;1.50;;;15.90;60.60;;;;;;4972738;28;20034;-63
2021/01/06 01:09:36;;;;;;;3.70;1.40;;;16.00;60.50;;;;;;4990818;28;20071;-63
2021/01/06 01:12:07;;;;;;;3.30;1.60;;;16.00;60.80;;;;;;4990873;28;20510;-60
2021/01/06 01:14:32;;;;;;;3.00;1.42;;;15.90;60.50;;;;;;4987171;28;20026;-63
2021/01/06 01:16:58;;;;;;;4.57;1.70;;;15.90;60.40;;;;;;4989528;28;20029;-63
2021/01/06 01:19:23;;;;;;;5.38;1.60;;;16.00;60.60;;;;;;4982982;28;20583;-63
2021/01/06 01:21:49;;;;;;;3.72;1.48;;;15.90;60.40;;;;;;4985292;28;20309;-62
2021/01/06 01:24:14;;;;;;;3.25;1.60;;;15.90;60.60;;;;;;4989905;28;20030;-63
2021/01/06 01:26:40;;;;;;;5.22;1.90;;;15.90;60.80;;;;;;4991108;28;20027;-63
2021/01/06 01:29:06;;;;;;;4.22;1.60;;;15.90;60.60;;;;;;4994652;28;20030;-64
2021/01/06 01:31:34;;;;;;;4.43;1.33;;;15.90;60.40;;;;;;4994633;28;20026;-64
2021/01/06 01:34:00;;;;;;;3.22;1.70;;;15.80;60.40;;;;;;4993169;28;20042;-62
2021/01/06 01:36:27;;;;;;;3.83;1.48;;;15.80;60.40;;;;;;4993932;28;20639;-60
2021/01/06 01:38:53;;;;;;;4.25;1.50;;;15.80;60.40;;;;;;4993630;28;20023;-62
2021/01/06 01:41:22;;;;;;;4.95;1.50;;;15.80;60.70;;;;;;4990049;28;20492;-62
2021/01/06 01:43:48;;;;;;;4.85;1.80;;;15.80;60.80;;;;;;4980806;28;20029;-63
2021/01/06 01:46:19;;;;;;;3.67;1.50;;;15.80;60.60;;;;;;4974809;28;20023;-62
2021/01/06 01:48:48;;;;;;;3.35;1.60;;;15.70;60.80;;;;;;4980943;28;20057;-63
2021/01/06 01:51:22;;;;;;;3.70;1.63;;;15.80;60.70;;;;;;4993837;28;20030;-63
2021/01/06 01:53:55;;;;;;;3.25;1.38;;;15.70;60.90;;;;;;4992584;28;20407;-63
2021/01/06 01:56:24;;;;;;;3.55;1.60;;;15.70;60.70;;;;;;4992877;28;20648;-63
2021/01/06 01:58:52;;;;;;;4.50;1.50;;;15.80;60.80;;;;;;4992911;28;20033;-62
2021/01/06 02:01:19;;;;;;;3.03;1.30;;;15.70;60.90;;;;;;4994507;28;20014;-63
2021/01/06 02:03:54;;;;;;;3.95;1.77;;;15.70;60.80;;;;;;4993995;28;20101;-64
2021/01/06 02:06:34;;;;;;;3.67;1.60;;;15.70;60.60;;;;;;4994344;28;20106;-62
2021/01/06 02:09:08;;;;;;;3.05;1.50;;;15.70;60.80;;;;;;4994288;28;20518;-63
2021/01/06 02:11:44;;;;;;;4.32;1.65;;;15.60;60.70;;;;;;4994231;28;20026;-63
2021/01/06 02:14:14;;;;;;;3.67;1.70;;;15.60;60.90;;;;;;4993984;28;20026;-62
2021/01/06 02:17:07;;;;;;;3.45;1.65;;;15.60;61.10;;;;;;4994148;28;20130;-63
2021/01/06 02:19:38;;;;;;;5.72;1.60;;;15.60;60.90;;;;;;4991279;28;20412;-63
2021/01/06 02:22:06;;;;;;;4.53;1.52;;;15.60;60.80;;;;;;4974262;28;20118;-62
2021/01/06 02:24:33;;;;;;;4.60;1.80;;;15.60;61.00;;;;;;4972879;28;20039;-63
2021/01/06 02:26:59;;;;;;;4.47;1.88;;;15.60;60.90;;;;;;4973095;28;20027;-63
2021/01/06 02:29:24;;;;;;;3.85;1.58;;;15.60;60.90;;;;;;4975179;28;20570;-63
2021/01/06 02:35:13;;;;;;;4.00;1.60;;;15.60;60.70;;;;;;4981989;28;20065;-63
2021/01/06 02:37:39;;;;;;;4.20;1.90;;;15.50;60.90;;;;;;4975255;28;20027;-63
2021/01/06 02:40:07;;;;;;;4.15;1.92;;;15.50;61.00;;;;;;4975853;28;20027;-64
2021/01/06 02:42:33;;;;;;;4.05;1.48;;;15.50;61.00;;;;;;5003352;28;20100;-63
2021/01/06 02:44:59;;;;;;;3.03;1.50;;;15.50;61.00;;;;;;4976908;28;20027;-63
2021/01/06 02:47:26;;;;;;;3.20;1.42;;;15.50;60.80;;;;;;4985421;28;20045;-63
2021/01/06 02:49:52;;;;;;;3.50;1.42;;;15.50;61.00;;;;;;4987384;28;20472;-63
2021/01/06 02:52:24;;;;;;;4.15;1.60;;;15.50;60.90;;;;;;4987500;28;20046;-63
2021/01/06 02:54:50;;;;;;;4.15;1.90;;;15.40;61.00;;;;;;4984006;28;20560;-63
2021/01/06 02:57:17;;;;;;;6.22;1.52;;;15.40;60.90;;;;;;4985980;28;20443;-62
2021/01/06 02:59:47;;;;;;;5.03;1.80;;;15.40;60.90;;;;;;4988906;28;20030;-62
2021/01/06 03:02:19;;;;;;;3.63;1.60;;;15.40;60.90;;;;;;4983295;28;20014;-62
2021/01/06 03:04:56;;;;;;;4.53;1.60;;;15.40;60.90;;;;;;4971903;28;20117;-63
2021/01/06 03:07:26;;;;;;;3.80;1.60;;;15.40;61.10;;;;;;4974497;28;20591;-62
2021/01/06 03:09:51;;;;;;;3.80;1.73;;;15.40;61.00;;;;;;4998086;28;20030;-63
2021/01/06 03:12:24;;;;;;;3.67;1.75;;;15.40;60.80;;;;;;4984652;28;20730;-62
2021/01/06 03:14:50;;;;;;;3.00;1.60;;;15.40;61.10;;;;;;4973193;28;20031;-63
2021/01/06 03:17:17;;;;;;;3.38;1.77;;;15.40;60.90;;;;;;4976091;28;20085;-61
2021/01/06 03:19:47;;;;;;;4.03;1.63;;;15.30;61.00;;;;;;4981522;28;20027;-62
2021/01/06 03:22:16;;;;;;;4.18;1.73;;;15.30;61.00;;;;;;4974410;28;20031;-63
2021/01/06 03:25:00;;;;;;;3.97;1.90;;;15.30;61.00;;;;;;4973380;28;20059;-63
2021/01/06 03:27:27;;;;;;;3.38;1.80;;;15.30;60.90;;;;;;4983030;28;20030;-63
2021/01/06 03:29:54;;;;;;;2.85;1.70;;;15.30;60.90;;;;;;4979292;28;20041;-62
2021/01/06 03:32:29;;;;;;;3.58;1.80;;;15.30;61.70;;;;;;4986273;28;20019;-63
2021/01/06 03:35:06;;;;;;;5.03;1.90;;;15.30;61.20;;;;;;4972915;28;20377;-63
2021/01/06 03:37:41;;;;;;;4.28;1.95;;;15.20;61.20;;;;;;4977811;28;20041;-62
2021/01/06 03:40:25;;;;;;;4.50;1.85;;;15.20;61.30;;;;;;4989897;28;20030;-62
2021/01/06 03:42:53;;;;;;;3.85;1.80;;;15.20;61.00;;;;;;4987751;28;20022;-64
2021/01/06 03:45:23;;;;;;;3.67;1.80;;;15.20;61.20;;;;;;4991418;28;20027;-64
2021/01/06 03:47:56;;;;;;;4.15;2.00;;;15.20;61.20;;;;;;4977027;28;20046;-63
2021/01/06 03:50:40;;;;;;;3.45;1.80;;;15.20;61.10;;;;;;4986557;28;20104;-62
2021/01/06 03:53:17;;;;;;;4.78;1.85;;;15.20;61.20;;;;;;4975520;28;20027;-61
2021/01/06 03:55:54;;;;;;;4.22;1.90;;;15.20;61.20;;;;;;4992220;28;20026;-63
2021/01/06 03:58:50;;;;;;;3.83;1.85;;;15.10;61.30;;;;;;4979772;28;20026;-63
2021/01/06 04:01:21;;;;;;;3.67;1.77;;;15.10;61.00;;;;;;4972754;28;20062;-62
2021/01/06 04:03:53;;;;;;;3.00;1.60;;;15.10;61.10;;;;;;4971878;28;20031;-63
2021/01/06 04:06:20;;;;;;;4.20;1.85;;;15.10;61.10;;;;;;4978693;28;20477;-64
2021/01/06 04:08:51;;;;;;;4.03;1.80;;;15.10;61.10;;;;;;4972400;28;20031;-63
2021/01/06 04:11:21;;;;;;;2.90;1.50;;;15.10;61.10;;;;;;4988075;28;20082;-63
2021/01/06 04:13:47;;;;;;;4.78;1.85;;;15.00;61.10;;;;;;4986978;28;20479;-63
2021/01/06 04:16:13;;;;;;;3.25;1.85;;;15.00;61.10;;;;;;4979436;28;20033;-65
2021/01/06 04:18:40;;;;;;;3.33;1.83;;;15.00;61.20;;;;;;4989832;28;20026;-61
2021/01/06 04:21:06;;;;;;;6.85;2.33;;;15.10;61.30;;;;;;4972945;28;20073;-62
2021/01/06 04:23:33;;;;;;;3.42;1.80;;;15.00;61.20;;;;;;4977038;28;20026;-62
2021/01/06 04:25:59;;;;;;;3.67;1.90;;;15.00;61.20;;;;;;4990898;28;20057;-63
2021/01/06 04:28:27;;;;;;;3.88;1.95;;;15.00;61.30;;;;;;4985943;28;20113;-62
2021/01/06 04:31:13;;;;;;;3.00;1.60;;;15.00;61.30;;;;;;4978533;28;20034;-64
2021/01/06 04:33:42;;;;;;;3.17;1.83;;;15.00;61.30;;;;;;4989480;28;20030;-63
2021/01/06 04:36:18;;;;;;;3.05;1.90;;;15.00;61.30;;;;;;4989779;28;20030;-62
2021/01/06 04:38:46;;;;;;;3.63;1.85;;;15.00;61.40;;;;;;4990276;28;20057;-63
2021/01/06 04:41:29;;;;;;;2.85;1.42;;;15.00;61.40;;;;;;4980385;28;20027;-63
2021/01/06 04:44:18;;;;;;;4.70;1.80;;;14.90;61.40;;;;;;4981047;28;20105;-64
2021/01/06 04:46:57;;;;;;;3.00;1.83;;;14.90;61.50;;;;;;4983892;28;20026;-63
2021/01/06 04:49:55;;;;;;;3.83;1.85;;;14.90;61.50;;;;;;4982941;28;20027;-62
2021/01/06 04:52:23;;;;;;;3.42;1.77;;;14.90;61.60;;;;;;4991350;28;20037;-62
2021/01/06 04:55:02;;;;;;;3.38;1.90;;;14.90;61.50;;;;;;4978137;28;20035;-62
2021/01/06 04:57:30;;;;;;;3.10;1.77;;;14.90;61.60;;;;;;4972750;28;20057;-62
2021/01/06 05:00:16;;;;;;;4.78;2.08;;;14.90;61.70;;;;;;4972249;28;20511;-63
2021/01/06 05:03:22;;;;;;;3.35;1.92;;;14.90;61.60;;;;;;4972568;28;20034;-62
2021/01/06 05:06:16;;;;;;;3.72;2.00;;;14.90;61.60;;;;;;4981552;28;20057;-62
2021/01/06 05:08:46;;;;;;;3.60;1.77;;;14.90;61.80;;;;;;4972049;28;20023;-63
2021/01/06 05:11:22;;;;;;;3.95;1.90;;;14.80;61.90;;;;;;4986672;28;20027;-64
2021/01/06 05:14:08;;;;;;;3.53;1.85;;;14.90;61.80;;;;;;5001044;28;20026;-63
2021/01/06 05:16:41;;;;;;;3.67;1.75;;;14.80;61.80;;;;;;4970566;28;20026;-62
2021/01/06 05:19:18;;;;;;;3.83;1.98;;;14.80;61.60;;;;;;4985195;28;20018;-63
2021/01/06 05:21:44;;;;;;;3.08;1.80;;;14.80;61.70;;;;;;4988093;28;20026;-65
2021/01/06 05:24:42;;;;;;;3.75;1.80;;;14.80;61.60;;;;;;4989095;28;20034;-62
2021/01/06 05:27:13;;;;;;;4.10;1.80;;;14.80;61.90;;;;;;4986385;28;20126;-62
2021/01/06 05:29:43;;;;;;;4.05;1.90;;;14.80;61.90;;;;;;4984809;28;20118;-62
2021/01/06 05:32:24;;;;;;;3.53;1.85;;;14.80;62.30;;;;;;4989623;28;20570;-63
2021/01/06 05:34:54;;;;;;;7.00;1.80;;;14.80;61.50;;;;;;4971040;28;20035;-63
2021/01/06 05:37:23;;;;;;;10.02;6.72;;;14.80;61.90;;;;;;4975526;28;20117;-64
2021/01/06 05:39:49;;;;;;;28.02;24.98;;;14.80;61.70;;;;;;4973028;28;20015;-63
2021/01/06 05:42:25;;;;;;;30.08;25.02;;;14.80;61.70;;;;;;4984781;28;20388;-62
2021/01/06 05:44:53;;;;;;;17.17;10.63;;;14.90;61.70;;;;;;4989257;28;20101;-64
2021/01/06 05:47:34;;;;;;;8.80;6.20;;;15.00;61.50;;;;;;4990242;28;20066;-66
2021/01/06 05:50:14;;;;;;;11.40;4.80;;;15.10;61.20;;;;;;4983893;28;20048;-63
2021/01/06 05:52:40;;;;;;;55.38;49.92;;;15.30;60.20;;;;;;4974175;28;20034;-62
2021/01/06 05:55:13;;;;;;;35.45;31.60;;;15.40;60.10;;;;;;4981362;28;20058;-62
2021/01/06 05:58:17;;;;;;;15.70;13.98;;;15.40;60.00;;;;;;4989048;28;20031;-63
2021/01/06 06:00:52;;;;;;;14.48;11.85;;;15.40;59.90;;;;;;4979728;28;20018;-63
2021/01/06 06:03:31;;;;;;;11.52;7.43;;;15.50;59.60;;;;;;4979150;28;20045;-62
2021/01/06 06:06:24;;;;;;;13.68;7.00;;;15.70;59.50;;;;;;4981450;28;20392;-63
2021/01/06 06:09:03;;;;;;;13.98;7.47;;;15.70;59.40;;;;;;4984267;28;20057;-63
2021/01/06 06:12:01;;;;;;;14.00;6.28;;;15.80;59.30;;;;;;4981793;28;20498;-65
2021/01/06 06:15:01;;;;;;;12.43;5.72;;;15.90;59.50;;;;;;4980505;28;20045;-62
2021/01/06 06:18:00;;;;;;;17.42;5.07;;;16.20;59.20;;;;;;4982825;28;20558;-62
2021/01/06 06:21:09;;;;;;;16.30;5.38;;;16.20;58.90;;;;;;4976751;28;20054;-62
2021/01/06 06:23:59;;;;;;;15.75;4.97;;;16.30;58.90;;;;;;5008792;28;20022;-62
2021/01/06 06:26:34;;;;;;;11.25;4.38;;;16.40;58.50;;;;;;4977246;28;20062;-64
2021/01/06 06:29:29;;;;;;;12.10;4.95;;;16.40;58.40;;;;;;4988232;28;20030;-62
2021/01/06 06:31:57;;;;;;;9.63;4.40;;;16.40;58.30;;;;;;4982312;28;20030;-62
2021/01/06 06:34:30;;;;;;;9.52;4.15;;;16.50;58.40;;;;;;4983766;28;20029;-61
2021/01/06 06:37:22;;;;;;;9.88;3.90;;;16.50;58.10;;;;;;4988542;28;20026;-62
2021/01/06 06:40:09;;;;;;;8.25;3.75;;;16.50;57.80;;;;;;4988468;28;20399;-63
2021/01/06 06:42:54;;;;;;;11.95;3.88;;;16.40;57.80;;;;;;4981372;28;20442;-62
2021/01/06 06:45:31;;;;;;;10.52;3.88;;;16.40;58.00;;;;;;4988471;28;20157;-61
2021/01/06 06:48:14;;;;;;;10.25;3.90;;;16.40;58.00;;;;;;4990254;28;20575;-62
2021/01/06 06:50:57;;;;;;;7.75;3.30;;;16.40;58.00;;;;;;4986946;28;20042;-62
2021/01/06 06:54:00;;;;;;;9.00;3.20;;;16.40;57.90;;;;;;4989179;28;20113;-61
2021/01/06 06:56:43;;;;;;;8.90;3.28;;;16.40;58.00;;;;;;4975123;28;20041;-62
2021/01/06 06:59:26;;;;;;;7.93;3.25;;;16.50;58.00;;;;;;4985108;28;20038;-63
2021/01/06 07:01:57;;;;;;;13.55;3.92;;;16.50;58.00;;;;;;4980796;28;20699;-62
2021/01/06 07:04:47;;;;;;;8.57;3.65;;;16.50;57.50;;;;;;4984586;28;20063;-64
2021/01/06 07:07:51;;;;;;;11.60;4.32;;;16.50;57.50;;;;;;4975077;28;20444;-62
2021/01/06 07:10:29;;;;;;;13.20;4.60;;;16.50;57.60;;;;;;4986874;28;20022;-62
2021/01/06 07:13:06;;;;;;;10.80;4.93;;;16.60;58.00;;;;;;4994051;28;20030;-62
2021/01/06 07:15:35;;;;;;;11.93;4.63;;;16.60;58.10;;;;;;4998174;28;20050;-63
2021/01/06 07:18:22;;;;;;;15.38;5.55;;;16.60;60.20;;;;;;4990362;28;20034;-64
2021/01/06 07:20:57;;;;;;;11.63;5.13;;;16.70;59.10;;;;;;4982812;28;20038;-62
2021/01/06 07:23:25;;;;;;;13.52;5.03;;;16.70;58.70;;;;;;4987500;28;20026;-61
2021/01/06 07:26:07;;;;;;;12.95;4.68;;;16.80;58.10;;;;;;4985118;28;20430;-63
2021/01/06 07:28:32;;;;;;;11.55;4.97;;;16.80;58.80;;;;;;4974189;28;20035;-70
2021/01/06 07:31:16;;;;;;;12.63;5.20;;;16.80;58.60;;;;;;4980277;28;20750;-61
2021/01/06 07:33:44;;;;;;;11.48;5.85;;;16.80;58.80;;;;;;4985150;28;20041;-61
2021/01/06 07:36:17;;;;;;;9.23;5.47;;;16.80;58.90;;;;;;4990245;28;20017;-60
2021/01/06 07:38:45;;;;;;;12.43;4.72;;;16.80;58.80;;;;;;4997506;28;20026;-61
2021/01/06 07:41:11;;;;;;;16.27;6.30;;;16.90;59.30;;;;;;4977030;28;20026;-62
2021/01/06 07:43:44;;;;;;;42.38;19.83;;;17.00;60.80;;;;;;4981893;28;20484;-64
2021/01/06 07:46:17;;;;;;;24.75;13.65;;;17.00;61.90;;;;;;4987161;28;20117;-67
2021/01/06 07:48:48;;;;;;;17.50;9.13;;;17.10;61.10;;;;;;4982812;28;20034;-66
2021/01/06 07:52:12;;;;;;;24.42;10.73;;;17.00;61.20;;;;;;4979642;28;20033;-66
2021/01/06 07:55:06;;;;;;;22.00;9.90;;;17.00;61.30;;;;;;4925102;29;20094;-63
2021/01/06 07:57:43;;;;;;;27.92;10.93;;;17.00;61.70;;;;;;4922387;29;20131;-64
2021/01/06 08:00:15;;;;;;;22.85;9.75;;;17.00;63.80;;;;;;4967592;28;20149;-63
2021/01/06 08:02:54;;;;;;;20.38;8.52;;;17.00;65.00;;;;;;4976017;28;20700;-63
2021/01/06 08:05:33;;;;;;;26.88;8.90;;;16.90;65.50;;;;;;4987118;28;20142;-62
2021/01/06 08:08:14;;;;;;;19.88;7.60;;;16.90;65.50;;;;;;4984946;28;20026;-63
2021/01/06 08:10:46;;;;;;;22.38;7.72;;;16.90;65.70;;;;;;4985888;28;20197;-63
2021/01/06 08:13:25;;;;;;;16.38;7.35;;;16.90;65.70;;;;;;4979998;28;20065;-63
2021/01/06 08:16:10;;;;;;;18.50;7.68;;;17.00;65.60;;;;;;4985266;28;20170;-62
2021/01/06 08:19:02;;;;;;;18.42;7.40;;;17.10;64.50;;;;;;4988683;28;20034;-62
2021/01/06 08:21:45;;;;;;;16.92;6.18;;;17.20;64.20;;;;;;4968476;28;20026;-63
2021/01/06 08:24:27;;;;;;;19.10;6.68;;;17.20;63.70;;;;;;4979581;28;20010;-65
2021/01/06 08:26:55;;;;;;;31.50;7.28;;;17.20;64.30;;;;;;4996395;28;20026;-62
2021/01/06 08:29:26;;;;;;;23.92;6.70;;;17.00;63.80;;;;;;4977347;28;20034;-64
2021/01/06 08:31:59;;;;;;;29.52;6.93;;;17.00;63.30;;;;;;4979822;28;20026;-62
2021/01/06 08:34:29;;;;;;;28.27;6.35;;;16.90;62.10;;;;;;4979926;28;20042;-63
2021/01/06 08:36:58;;;;;;;21.23;5.63;;;16.90;62.60;;;;;;4979761;28;20510;-62
2021/01/06 08:39:26;;;;;;;16.50;5.10;;;16.90;63.60;;;;;;4976665;28;20027;-62
2021/01/06 08:41:55;;;;;;;22.70;5.55;;;16.90;63.70;;;;;;4980984;28;20049;-62
2021/01/06 08:44:37;;;;;;;17.38;5.80;;;16.90;63.10;;;;;;4983229;28;20080;-62
2021/01/06 08:47:07;;;;;;;17.30;5.15;;;16.80;63.20;;;;;;4985694;28;20026;-63
2021/01/06 08:49:44;;;;;;;17.05;4.80;;;16.90;63.50;;;;;;4983081;28;20057;-62
2021/01/06 08:52:20;;;;;;;16.75;4.75;;;16.90;63.40;;;;;;4983255;28;20026;-62
2021/01/06 08:54:57;;;;;;;17.00;5.00;;;16.80;63.30;;;;;;4985462;28;20037;-61
2021/01/06 08:57:35;;;;;;;14.20;5.28;;;16.80;63.20;;;;;;4984368;28;20547;-63
2021/01/06 09:00:22;;;;;;;15.48;4.88;;;16.80;63.10;;;;;;4985345;28;20109;-63
2021/01/06 09:02:54;;;;;;;10.88;4.38;;;16.80;62.90;;;;;;4985165;28;20420;-62
2021/01/06 09:05:57;;;;;;;15.68;4.55;;;16.80;63.00;;;;;;4985290;28;20102;-62
2021/01/06 09:08:38;;;;;;;12.57;4.18;;;16.80;62.70;;;;;;4985390;28;20050;-61
2021/01/06 09:11:13;;;;;;;13.13;4.47;;;16.80;62.80;;;;;;4984049;28;20028;-62
2021/01/06 09:14:09;;;;;;;8.95;3.38;;;16.80;62.70;;;;;;4985103;28;20062;-63
2021/01/06 09:16:47;;;;;;;8.60;3.28;;;16.70;62.70;;;;;;4985371;28;20070;-62
2021/01/06 09:19:45;;;;;;;9.10;3.45;;;16.70;62.60;;;;;;4983950;28;20113;-63
2021/01/06 09:22:12;;;;;;;9.98;3.60;;;16.70;62.60;;;;;;4971699;28;20043;-63
2021/01/06 09:24:40;;;;;;;13.95;3.65;;;16.70;62.60;;;;;;4981383;28;20065;-62
2021/01/06 09:27:27;;;;;;;8.98;3.25;;;16.70;62.40;;;;;;4976583;28;20043;-63
2021/01/06 09:29:54;;;;;;;9.45;3.33;;;16.70;61.70;;;;;;4978581;28;20034;-63
2021/01/06 09:32:26;;;;;;;10.55;3.42;;;16.60;60.80;;;;;;4983024;28;20036;-61
2021/01/06 09:34:58;;;;;;;9.23;3.50;;;16.60;61.50;;;;;;4982699;28;20080;-62
2021/01/06 09:37:30;;;;;;;11.00;3.47;;;16.60;61.50;;;;;;4985023;28;20053;-62
2021/01/06 09:40:04;;;;;;;8.38;3.05;;;16.60;61.70;;;;;;4985095;28;20081;-62
2021/01/06 09:42:31;;;;;;;8.55;3.25;;;16.60;61.70;;;;;;4983821;28;20495;-61
2021/01/06 09:44:57;;;;;;;7.43;2.92;;;16.60;61.60;;;;;;4983798;28;20046;-62
2021/01/06 09:47:29;;;;;;;9.63;3.28;;;16.60;61.50;;;;;;4983846;28;20695;-62
2021/01/06 09:50:01;;;;;;;6.88;2.50;;;16.50;61.50;;;;;;4985612;28;20058;-63
2021/01/06 09:52:36;;;;;;;;;;;16.50;61.40;;;;;;4986518;28;20026;-62
2021/01/06 09:55:05;;;;;;;8.30;2.80;;;16.50;61.20;;;;;;4988670;28;20260;-60
2021/01/06 09:57:32;;;;;;;7.45;2.55;;;16.60;61.00;;;;;;4987519;28;20062;-62
2021/01/06 10:00:08;;;;;;;7.93;2.80;;;16.50;60.90;;;;;;4987012;28;20031;-60
2021/01/06 10:02:36;;;;;;;5.95;2.42;;;16.50;60.80;;;;;;4987499;28;20030;-61
2021/01/06 10:05:38;;;;;;;9.70;3.22;;;16.50;60.70;;;;;;4986823;28;20034;-62
2021/01/06 10:08:27;;;;;;;6.72;2.45;;;16.50;60.40;;;;;;4986995;28;20026;-62
2021/01/06 10:11:14;;;;;;;6.28;2.60;;;16.50;60.30;;;;;;4988707;28;20050;-61
2021/01/06 10:13:58;;;;;;;6.85;2.40;;;16.50;60.40;;;;;;4986441;28;20031;-61
2021/01/06 10:16:43;;;;;;;5.63;2.50;;;16.50;60.10;;;;;;4988342;28;20117;-65
2021/01/06 10:19:08;;;;;;;6.40;2.60;;;16.50;60.10;;;;;;4986610;28;20022;-60
2021/01/06 10:21:55;;;;;;;7.70;2.60;;;16.40;60.50;;;;;;4986579;28;20038;-62
2021/01/06 10:24:23;;;;;;;8.43;2.47;;;16.40;59.90;;;;;;4985491;28;20402;-62
2021/01/06 10:27:11;;;;;;;6.53;2.60;;;16.40;59.90;;;;;;4988155;28;20038;-62
2021/01/06 10:29:45;;;;;;;7.47;3.22;;;16.40;59.70;;;;;;4987869;28;20092;-63
2021/01/06 10:32:11;;;;;;;7.30;3.50;;;16.40;59.70;;;;;;4987360;28;20402;-61
2021/01/06 10:34:42;;;;;;;6.78;3.50;;;16.50;59.40;;;;;;4985884;28;20026;-62
2021/01/06 10:37:20;;;;;;;9.90;3.65;;;16.50;59.30;;;;;;4982852;28;20388;-63
2021/01/06 10:39:58;;;;;;;8.50;3.60;;;16.50;59.00;;;;;;4986711;28;20046;-63
2021/01/06 10:42:23;;;;;;;9.60;3.90;;;16.50;59.00;;;;;;4987921;28;20026;-63
2021/01/06 10:45:14;;;;;;;8.77;4.22;;;16.50;59.10;;;;;;4985992;28;20033;-62
2021/01/06 10:47:42;;;;;;;7.40;3.30;;;16.50;59.10;;;;;;4986782;28;20065;-61
2021/01/06 10:50:26;;;;;;;8.25;3.88;;;16.50;59.10;;;;;;4986153;28;20667;-60
2021/01/06 10:53:17;;;;;;;6.80;3.72;;;16.50;59.00;;;;;;4985791;28;20037;-63
2021/01/06 10:56:10;;;;;;;7.57;3.60;;;16.50;58.90;;;;;;4985821;28;20047;-62
2021/01/06 10:59:03;;;;;;;8.27;4.05;;;16.50;58.80;;;;;;4987536;28;20504;-63
2021/01/06 11:01:51;;;;;;;7.30;3.45;;;16.50;58.80;;;;;;4985701;28;20046;-62
2021/01/06 11:04:39;;;;;;;6.47;3.55;;;16.50;58.80;;;;;;4987160;28;20023;-62
2021/01/06 11:07:40;;;;;;;6.45;3.67;;;16.50;58.60;;;;;;4987685;28;20590;-63
2021/01/06 11:10:18;;;;;;;6.63;3.50;;;16.50;58.50;;;;;;4985627;28;20097;-62
2021/01/06 11:12:52;;;;;;;7.72;3.92;;;16.50;58.60;;;;;;4987264;28;20558;-62
2021/01/06 11:15:56;;;;;;;7.88;4.07;;;16.50;58.30;;;;;;4986118;28;20034;-62
2021/01/06 11:18:22;;;;;;;8.18;3.70;;;16.50;58.20;;;;;;4984330;28;20526;-61
2021/01/06 11:21:18;;;;;;;6.55;3.45;;;16.50;58.20;;;;;;4985652;28;20030;-62
2021/01/06 11:24:01;;;;;;;6.10;3.20;;;16.50;58.10;;;;;;4982542;28;20023;-62
2021/01/06 11:26:35;;;;;;;7.35;3.50;;;16.50;58.20;;;;;;4966214;28;20042;-62
2021/01/06 11:29:11;;;;;;;7.57;3.72;;;16.50;58.30;;;;;;4964237;28;20034;-61
2021/01/06 11:31:40;;;;;;;6.25;3.13;;;16.50;58.20;;;;;;4965173;28;20023;-62
2021/01/06 11:34:09;;;;;;;8.27;3.60;;;16.40;58.40;;;;;;4969775;28;20030;-62
2021/01/06 11:36:42;;;;;;;7.38;3.47;;;16.50;58.30;;;;;;4997805;28;20023;-63
2021/01/06 11:39:12;;;;;;;9.63;3.63;;;16.50;59.50;;;;;;4985225;28;20033;-63
2021/01/06 11:41:46;;;;;;;9.52;3.80;;;16.50;59.60;;;;;;4977323;28;20029;-62
2021/01/06 11:44:32;;;;;;;16.63;4.35;;;16.60;61.30;;;;;;4989051;28;20026;-63
2021/01/06 11:47:04;;;;;;;16.95;6.60;;;16.50;60.10;;;;;;4987991;28;20045;-61
2021/01/06 11:49:38;;;;;;;24.90;11.65;;;16.60;60.20;;;;;;4984952;28;20789;-62
2021/01/06 11:52:28;;;;;;;27.70;10.50;;;16.50;61.80;;;;;;4989425;28;20038;-64
2021/01/06 11:55:19;;;;;;;26.33;13.85;;;16.50;59.90;;;;;;4990706;28;20036;-61
2021/01/06 11:57:50;;;;;;;;;;;16.50;62.00;;;;;;4989413;28;20105;-61
2021/01/06 12:00:49;;;;;;;22.50;12.27;;;16.50;60.40;;;;;;4988150;28;20781;-61
2021/01/06 12:03:31;;;;;;;30.33;15.30;;;16.60;59.90;;;;;;4988110;28;20057;-62
2021/01/06 12:06:21;;;;;;;20.85;12.80;;;16.60;61.50;;;;;;4990739;28;20051;-62
2021/01/06 12:09:07;;;;;;;17.52;11.30;;;16.60;60.40;;;;;;4989648;28;20038;-62
2021/01/06 12:11:39;;;;;;;16.90;10.55;;;16.50;59.50;;;;;;4993787;28;20061;-63
2021/01/06 12:14:15;;;;;;;17.75;9.85;;;16.50;59.00;;;;;;4980159;28;20027;-62
2021/01/06 12:17:08;;;;;;;16.02;9.48;;;16.50;59.10;;;;;;4991566;28;20769;-62
2021/01/06 12:20:13;;;;;;;15.38;8.32;;;16.50;58.20;;;;;;4991050;28;20484;-61
2021/01/06 12:22:38;;;;;;;19.27;8.75;;;16.40;57.80;;;;;;4978535;28;20038;-62
2021/01/06 12:25:24;;;;;;;14.90;7.63;;;16.40;57.50;;;;;;4996247;28;20034;-62
2021/01/06 12:27:53;;;;;;;16.92;7.45;;;16.40;57.90;;;;;;4996336;28;20030;-62
2021/01/06 12:30:29;;;;;;;12.48;7.30;;;16.40;58.00;;;;;;4994630;28;20407;-62
2021/01/06 12:33:20;;;;;;;14.38;7.72;;;16.40;58.30;;;;;;4989699;28;20037;-63
2021/01/06 12:35:46;;;;;;;;;;;16.40;57.50;;;;;;4987055;28;20029;-62
2021/01/06 12:38:18;;;;;;;13.05;6.22;;;16.40;57.30;;;;;;4989548;28;20444;-62
2021/01/06 12:40:58;;;;;;;19.30;6.72;;;16.30;57.40;;;;;;4982499;28;20028;-62
2021/01/06 12:43:29;;;;;;;11.48;5.72;;;16.30;57.60;;;;;;4984048;28;20042;-62
2021/01/06 12:46:18;;;;;;;11.57;6.22;;;16.30;57.80;;;;;;4983085;28;20296;-61
2021/01/06 12:49:16;;;;;;;10.43;5.40;;;16.30;57.80;;;;;;4980490;28;20038;-62
2021/01/06 12:51:49;;;;;;;11.45;5.35;;;16.40;58.00;;;;;;4985336;28;20030;-63
2021/01/06 12:54:20;;;;;;;12.18;5.03;;;16.40;58.00;;;;;;4981936;28;20030;-63
2021/01/06 12:57:01;;;;;;;11.65;5.00;;;16.30;58.10;;;;;;4983704;28;20041;-62
2021/01/06 12:59:27;;;;;;;11.90;5.10;;;16.30;58.20;;;;;;4985481;28;20034;-63
2021/01/06 13:01:59;;;;;;;10.43;5.00;;;16.30;58.40;;;;;;4985560;28;20037;-64
2021/01/06 13:04:33;;;;;;;;;;;16.30;58.40;;;;;;4983847;28;20026;-63
2021/01/06 13:07:23;;;;;;;8.68;4.32;;;16.30;58.30;;;;;;4985396;28;19913;-62
2021/01/06 13:09:48;;;;;;;9.98;4.90;;;16.40;58.40;;;;;;4984132;28;20030;-63
2021/01/06 13:12:19;;;;;;;10.32;4.55;;;16.30;58.40;;;;;;4985368;28;20037;-63
2021/01/06 13:14:52;;;;;;;8.75;3.92;;;16.40;58.60;;;;;;4983626;28;20027;-63
2021/01/06 13:17:25;;;;;;;9.23;4.20;;;16.40;58.50;;;;;;4984306;28;20507;-62
2021/01/06 13:20:00;;;;;;;7.15;3.80;;;16.30;58.30;;;;;;4985309;28;20026;-63
2021/01/06 13:22:30;;;;;;;7.72;3.80;;;16.40;58.30;;;;;;4985377;28;20025;-62
2021/01/06 13:25:14;;;;;;;8.15;3.75;;;16.40;58.40;;;;;;4971902;28;20031;-63
2021/01/06 13:27:55;;;;;;;9.57;3.88;;;16.40;58.30;;;;;;4969715;28;20232;-63
2021/01/06 13:30:30;;;;;;;6.85;4.00;;;16.40;58.40;;;;;;4968032;28;20209;-63